createdAt,value
2018-10-17T00:00:25.854Z,5.90
2018-10-17T00:02:54.959Z,5.90
2018-10-17T00:05:24.134Z,5.80
2018-10-17T00:07:53.258Z,5.90
2018-10-17T00:10:22.397Z,5.90
2018-10-17T00:12:51.566Z,5.90
2018-10-17T00:15:20.683Z,5.90
2018-10-17T00:17:49.856Z,5.90
2018-10-17T00:20:19.058Z,5.90
2018-10-17T00:22:48.204Z,5.80
2018-10-17T00:25:17.310Z,5.80
2018-10-17T00:27:46.482Z,5.80
2018-10-17T00:30:15.626Z,5.80
2018-10-17T00:32:44.737Z,5.80
2018-10-17T00:35:13.982Z,5.80
2018-10-17T00:37:43.072Z,5.80
2018-10-17T00:40:12.245Z,5.70
2018-10-17T00:42:41.391Z,5.70
2018-10-17T00:45:10.567Z,5.70
2018-10-17T00:47:39.708Z,5.70
2018-10-17T00:50:08.948Z,5.80
2018-10-17T00:52:38.054Z,5.70
2018-10-17T00:55:07.726Z,5.70
2018-10-17T00:57:37.010Z,5.70
2018-10-17T01:00:06.343Z,5.70
2018-10-17T01:02:35.500Z,5.70
2018-10-17T01:05:04.829Z,5.60
2018-10-17T01:07:34.087Z,5.50
2018-10-17T01:10:03.262Z,5.60
2018-10-17T01:12:32.379Z,5.60
2018-10-17T01:15:01.589Z,5.50
2018-10-17T01:17:30.800Z,5.50
2018-10-17T01:19:59.978Z,5.50
2018-10-17T01:22:29.175Z,5.50
2018-10-17T01:24:58.368Z,5.50
2018-10-17T01:27:27.454Z,5.60
2018-10-17T01:29:56.605Z,5.60
2018-10-17T01:32:25.730Z,5.60
2018-10-17T01:34:54.929Z,5.60
2018-10-17T01:37:24.103Z,5.70
2018-10-17T01:39:53.279Z,5.70
2018-10-17T01:42:22.483Z,5.70
2018-10-17T01:44:51.622Z,5.60
2018-10-17T01:47:20.793Z,5.70
2018-10-17T01:49:49.955Z,5.60
2018-10-17T01:52:19.106Z,5.60
2018-10-17T01:54:48.328Z,5.70
2018-10-17T01:57:17.498Z,5.70
2018-10-17T01:59:46.603Z,5.70
2018-10-17T02:02:15.772Z,5.70
2018-10-17T02:04:44.947Z,5.60
2018-10-17T02:07:14.102Z,5.60
2018-10-17T02:09:43.209Z,5.60
2018-10-17T02:12:12.391Z,5.60
2018-10-17T02:14:41.511Z,5.60
2018-10-17T02:17:10.768Z,5.60
2018-10-17T02:19:39.856Z,5.60
2018-10-17T02:22:08.974Z,5.60
2018-10-17T02:24:38.143Z,5.60
2018-10-17T02:27:07.272Z,5.50
2018-10-17T02:29:36.498Z,5.50
2018-10-17T02:32:05.974Z,5.50
2018-10-17T02:34:39.244Z,5.50
2018-10-17T02:37:08.464Z,5.50
2018-10-17T02:39:37.633Z,5.50
2018-10-17T02:42:07.151Z,5.50
2018-10-17T02:44:36.251Z,5.50
2018-10-17T02:47:05.874Z,5.50
2018-10-17T02:49:35.071Z,5.50
2018-10-17T02:52:04.267Z,5.50
2018-10-17T02:54:33.374Z,5.50
2018-10-17T02:57:02.594Z,5.50
2018-10-17T02:59:31.792Z,5.50
2018-10-17T03:02:00.961Z,5.50
2018-10-17T03:04:30.178Z,5.50
2018-10-17T03:06:59.377Z,5.50
2018-10-17T03:09:28.484Z,5.50
2018-10-17T03:11:57.600Z,5.50
2018-10-17T03:14:26.771Z,5.40
2018-10-17T03:16:55.979Z,5.40
2018-10-17T03:19:25.173Z,5.40
2018-10-17T03:21:54.388Z,5.30
2018-10-17T03:24:23.517Z,5.30
2018-10-17T03:26:52.639Z,5.30
2018-10-17T03:29:21.838Z,5.20
2018-10-17T03:31:50.980Z,5.20
2018-10-17T03:34:20.097Z,5.20
2018-10-17T03:36:49.266Z,5.10
2018-10-17T03:39:18.419Z,5.20
2018-10-17T03:41:47.647Z,5.20
2018-10-17T03:44:16.817Z,5.20
2018-10-17T03:46:45.956Z,5.20
2018-10-17T03:49:15.141Z,5.20
2018-10-17T03:51:44.309Z,5.10
2018-10-17T03:54:13.399Z,5.20
2018-10-17T03:56:42.515Z,5.10
2018-10-17T03:59:11.743Z,5.10
2018-10-17T04:01:40.808Z,5.10
2018-10-17T04:04:09.920Z,5.10
2018-10-17T04:06:39.089Z,5.00
2018-10-17T04:09:09.125Z,5.00
2018-10-17T04:11:38.221Z,5.00
2018-10-17T04:14:07.419Z,5.00
2018-10-17T04:16:36.563Z,5.00
2018-10-17T04:19:05.778Z,5.00
2018-10-17T04:21:34.915Z,5.00
2018-10-17T04:24:04.040Z,5.00
2018-10-17T04:26:33.331Z,5.00
2018-10-17T04:29:02.519Z,4.90
2018-10-17T04:31:31.638Z,4.90
2018-10-17T04:34:00.775Z,4.90
2018-10-17T04:36:29.914Z,4.90
2018-10-17T04:38:59.860Z,4.90
2018-10-17T04:41:29.011Z,4.90
2018-10-17T04:43:58.203Z,4.90
2018-10-17T04:46:27.607Z,4.90
2018-10-17T04:48:56.880Z,4.90
2018-10-17T04:51:27.026Z,4.90
2018-10-17T04:53:56.232Z,4.90
2018-10-17T04:56:25.455Z,4.90
2018-10-17T04:58:54.621Z,4.80
2018-10-17T05:01:24.003Z,4.90
2018-10-17T05:03:53.112Z,4.90
2018-10-17T05:06:22.233Z,4.90
2018-10-17T05:08:51.850Z,4.90
2018-10-17T05:11:20.980Z,4.90
2018-10-17T05:13:50.358Z,5.00
2018-10-17T05:16:19.573Z,5.10
2018-10-17T05:18:48.772Z,5.20
2018-10-17T05:21:17.976Z,5.30
2018-10-17T05:23:47.249Z,5.40
2018-10-17T05:26:17.228Z,5.50
2018-10-17T05:28:46.411Z,5.60
2018-10-17T05:31:15.696Z,5.80
2018-10-17T05:33:44.868Z,5.90
2018-10-17T05:36:14.037Z,6.00
2018-10-17T05:38:43.210Z,6.10
2018-10-17T05:41:12.557Z,6.20
2018-10-17T05:43:41.640Z,6.20
2018-10-17T05:46:10.785Z,6.30
2018-10-17T05:48:40.024Z,6.40
2018-10-17T05:51:09.223Z,6.50
2018-10-17T05:53:38.401Z,6.70
2018-10-17T05:56:07.620Z,6.80
2018-10-17T05:58:36.784Z,6.90
2018-10-17T06:01:06.639Z,7.10
2018-10-17T06:03:35.778Z,7.20
2018-10-17T06:06:04.979Z,7.30
2018-10-17T06:08:34.167Z,7.40
2018-10-17T06:11:03.477Z,7.50
2018-10-17T06:13:32.644Z,7.60
2018-10-17T06:16:01.829Z,7.60
2018-10-17T06:18:31.032Z,7.70
2018-10-17T06:21:00.210Z,7.80
2018-10-17T06:23:29.439Z,7.80
2018-10-17T06:25:58.653Z,8.00
2018-10-17T06:28:27.883Z,8.00
2018-10-17T06:30:57.089Z,8.10
2018-10-17T06:33:26.287Z,8.20
2018-10-17T06:35:55.478Z,8.20
2018-10-17T06:38:24.682Z,8.30
2018-10-17T06:40:53.913Z,8.30
2018-10-17T06:43:23.157Z,8.40
2018-10-17T06:45:52.319Z,8.40
2018-10-17T06:48:21.507Z,8.50
2018-10-17T06:50:50.758Z,8.50
2018-10-17T06:53:19.925Z,8.60
2018-10-17T06:55:49.113Z,8.80
2018-10-17T06:58:18.308Z,9.00
2018-10-17T07:00:47.540Z,9.20
2018-10-17T07:03:16.707Z,9.40
2018-10-17T07:05:45.890Z,9.60
2018-10-17T07:08:15.463Z,9.90
2018-10-17T07:10:44.634Z,10.20
2018-10-17T07:13:13.873Z,10.50
2018-10-17T07:15:43.217Z,10.90
2018-10-17T07:18:12.292Z,11.20
2018-10-17T07:20:41.458Z,11.40
2018-10-17T07:23:11.178Z,11.60
2018-10-17T07:25:40.367Z,11.60
2018-10-17T07:28:09.823Z,11.50
2018-10-17T07:30:39.010Z,11.50
2018-10-17T07:33:08.409Z,11.40
2018-10-17T07:35:37.640Z,11.40
2018-10-17T07:38:06.921Z,11.40
2018-10-17T07:40:36.123Z,11.50
2018-10-17T07:43:07.976Z,11.70
2018-10-17T07:45:37.264Z,11.90
2018-10-17T07:48:06.554Z,12.30
2018-10-17T07:50:35.773Z,12.60
2018-10-17T07:53:05.007Z,13.10
2018-10-17T07:55:34.243Z,13.50
2018-10-17T07:58:03.496Z,13.90
2018-10-17T08:00:32.697Z,14.30
2018-10-17T08:03:01.945Z,14.60
2018-10-17T08:05:31.169Z,15.00
2018-10-17T08:08:00.402Z,15.30
2018-10-17T08:10:29.638Z,15.50
2018-10-17T08:12:58.885Z,15.80
2018-10-17T08:15:28.147Z,16.00
2018-10-17T08:17:57.385Z,16.10
2018-10-17T08:20:26.544Z,16.20
2018-10-17T08:22:55.817Z,16.30
2018-10-17T08:25:25.045Z,16.40
2018-10-17T08:27:54.235Z,16.40
2018-10-17T08:30:23.529Z,16.40
2018-10-17T08:32:52.752Z,16.50
2018-10-17T08:35:22.118Z,16.40
2018-10-17T08:37:51.831Z,16.40
2018-10-17T08:40:20.648Z,16.40
2018-10-17T08:42:49.876Z,16.30
2018-10-17T08:45:19.192Z,16.30
2018-10-17T08:47:48.355Z,16.20
2018-10-17T08:50:17.679Z,16.20
2018-10-17T08:52:46.803Z,16.10
2018-10-17T08:55:22.482Z,16.00
2018-10-17T08:57:51.735Z,16.00
2018-10-17T09:00:20.880Z,15.90
2018-10-17T09:02:50.068Z,15.90
2018-10-17T09:05:19.231Z,15.80
2018-10-17T09:07:48.478Z,15.80
2018-10-17T09:10:20.451Z,15.70
2018-10-17T09:12:49.776Z,15.70
2018-10-17T09:15:18.966Z,15.70
2018-10-17T09:17:48.204Z,15.80
2018-10-17T09:20:17.744Z,15.90
2018-10-17T09:22:46.664Z,15.90
2018-10-17T09:25:16.081Z,16.00
2018-10-17T09:27:45.133Z,16.10
2018-10-17T09:30:14.430Z,16.20
2018-10-17T09:32:43.586Z,16.30
2018-10-17T09:35:13.758Z,16.40
2018-10-17T09:37:42.944Z,16.40
2018-10-17T09:40:12.378Z,16.50
2018-10-17T09:42:42.243Z,16.60
2018-10-17T09:45:11.968Z,16.50
2018-10-17T09:47:41.169Z,16.40
2018-10-17T09:50:11.032Z,16.30
2018-10-17T09:52:40.236Z,16.20
2018-10-17T09:55:10.013Z,16.20
2018-10-17T09:57:39.225Z,16.30
2018-10-17T10:00:14.327Z,16.30
2018-10-17T10:02:44.327Z,16.30
2018-10-17T10:05:13.499Z,16.40
2018-10-17T10:07:42.663Z,16.50
2018-10-17T10:10:11.947Z,16.60
2018-10-17T10:12:41.109Z,16.60
2018-10-17T10:15:10.303Z,16.80
2018-10-17T10:17:39.658Z,16.90
2018-10-17T10:20:08.909Z,17.00
2018-10-17T10:22:38.124Z,17.10
2018-10-17T10:25:07.524Z,17.20
2018-10-17T10:27:36.717Z,17.20
2018-10-17T10:30:06.405Z,17.30
2018-10-17T10:32:35.572Z,17.40
2018-10-17T10:35:04.859Z,17.40
2018-10-17T10:37:34.118Z,17.50
2018-10-17T10:40:03.385Z,17.50
2018-10-17T10:42:32.600Z,17.60
2018-10-17T10:45:01.899Z,17.70
2018-10-17T10:47:31.102Z,17.70
2018-10-17T10:50:00.334Z,17.80
2018-10-17T10:52:29.566Z,17.80
2018-10-17T10:54:58.810Z,17.80
2018-10-17T10:57:27.987Z,17.90
2018-10-17T10:59:57.290Z,17.90
2018-10-17T11:02:26.529Z,18.00
2018-10-17T11:04:55.814Z,18.00
2018-10-17T11:07:25.042Z,18.00
2018-10-17T11:09:54.240Z,18.10
2018-10-17T11:12:23.495Z,18.10
2018-10-17T11:14:53.023Z,18.20
2018-10-17T11:17:22.057Z,18.20
2018-10-17T11:19:51.220Z,18.30
2018-10-17T11:22:20.499Z,18.30
2018-10-17T11:24:49.684Z,18.40
2018-10-17T11:27:19.126Z,18.40
2018-10-17T11:29:48.319Z,18.50
2018-10-17T11:32:17.543Z,18.50
2018-10-17T11:34:46.790Z,18.60
2018-10-17T11:37:16.031Z,18.70
2018-10-17T11:39:45.221Z,18.70
2018-10-17T11:42:14.411Z,18.80
2018-10-17T11:44:43.617Z,18.80
2018-10-17T11:47:12.973Z,18.80
2018-10-17T11:49:42.193Z,18.90
2018-10-17T11:52:11.402Z,18.90
2018-10-17T11:54:40.620Z,18.90
2018-10-17T11:57:09.971Z,19.00
2018-10-17T11:59:39.205Z,19.00
2018-10-17T12:02:08.486Z,19.00
2018-10-17T12:04:37.901Z,19.00
2018-10-17T12:07:07.062Z,19.10
2018-10-17T12:09:36.256Z,19.10
2018-10-17T12:12:05.709Z,19.20
2018-10-17T12:14:35.606Z,19.20
2018-10-17T12:17:05.035Z,19.30
2018-10-17T12:19:34.274Z,19.30
2018-10-17T12:22:03.521Z,19.40
2018-10-17T12:24:32.749Z,19.30
2018-10-17T12:27:01.960Z,19.30
2018-10-17T12:29:31.205Z,19.30
2018-10-17T12:32:00.383Z,19.30
2018-10-17T12:34:29.597Z,19.40
2018-10-17T12:36:58.782Z,19.40
2018-10-17T12:39:28.113Z,19.50
2018-10-17T12:41:57.195Z,19.40
2018-10-17T12:44:26.340Z,19.40
2018-10-17T12:46:55.554Z,19.40
2018-10-17T12:49:24.859Z,19.40
2018-10-17T12:51:54.037Z,19.40
2018-10-17T12:54:23.795Z,19.50
2018-10-17T12:56:53.083Z,19.50
2018-10-17T12:59:22.261Z,19.50
2018-10-17T13:01:51.463Z,19.40
2018-10-17T13:04:20.919Z,19.40
2018-10-17T13:06:50.368Z,19.40
2018-10-17T13:09:20.186Z,19.40
2018-10-17T13:11:49.433Z,19.40
2018-10-17T13:14:18.660Z,19.30
2018-10-17T13:16:47.911Z,19.30
2018-10-17T13:19:17.196Z,19.40
2018-10-17T13:21:46.324Z,19.30
2018-10-17T13:24:15.561Z,19.30
2018-10-17T13:26:44.754Z,19.30
2018-10-17T13:29:14.026Z,19.30
2018-10-17T13:31:43.245Z,19.20
2018-10-17T13:34:12.426Z,19.20
2018-10-17T13:36:41.652Z,19.20
2018-10-17T13:39:12.441Z,19.20
2018-10-17T13:41:41.635Z,19.20
2018-10-17T13:44:11.462Z,19.20
2018-10-17T13:46:40.798Z,19.10
2018-10-17T13:49:09.999Z,19.10
2018-10-17T13:51:39.240Z,19.10
2018-10-17T13:54:08.513Z,19.10
2018-10-17T13:56:37.740Z,19.10
2018-10-17T13:59:06.980Z,19.00
2018-10-17T14:01:36.270Z,19.00
2018-10-17T14:04:05.734Z,19.00
2018-10-17T14:06:34.744Z,18.90
2018-10-17T14:09:04.257Z,18.80
2018-10-17T14:11:33.285Z,18.70
2018-10-17T14:14:02.590Z,18.70
2018-10-17T14:16:31.533Z,18.60
2018-10-17T14:19:00.538Z,18.50
2018-10-17T14:21:29.472Z,18.50
2018-10-17T14:23:58.430Z,18.40
2018-10-17T14:26:27.424Z,18.40
2018-10-17T14:28:56.478Z,18.30
2018-10-17T14:31:25.775Z,18.20
2018-10-17T14:33:54.809Z,18.20
2018-10-17T14:36:23.807Z,18.10
2018-10-17T14:38:52.670Z,18.00
2018-10-17T14:41:21.696Z,17.90
2018-10-17T14:43:50.634Z,17.80
2018-10-17T14:46:19.552Z,17.70
2018-10-17T14:48:48.494Z,17.60
2018-10-17T14:51:17.465Z,17.60
2018-10-17T14:53:46.340Z,17.50
2018-10-17T14:56:15.262Z,17.40
2018-10-17T14:58:44.197Z,17.30
2018-10-17T15:01:13.499Z,17.20
2018-10-17T15:03:42.378Z,17.10
2018-10-17T15:06:11.911Z,16.90
2018-10-17T15:08:40.821Z,16.80
2018-10-17T15:11:09.809Z,16.60
2018-10-17T15:13:38.669Z,16.50
2018-10-17T15:16:07.572Z,16.30
2018-10-17T15:18:36.482Z,16.20
2018-10-17T15:21:05.596Z,16.10
2018-10-17T15:23:34.431Z,16.00
2018-10-17T15:26:03.325Z,15.90
2018-10-17T15:28:32.335Z,15.70
2018-10-17T15:31:01.229Z,15.50
2018-10-17T15:33:30.916Z,15.30
2018-10-17T15:36:00.594Z,15.10
2018-10-17T15:38:29.460Z,14.90
2018-10-17T15:40:58.530Z,14.70
2018-10-17T15:43:27.607Z,14.50
2018-10-17T15:45:56.528Z,14.30
2018-10-17T15:48:25.429Z,14.20
2018-10-17T15:50:54.376Z,14.00
2018-10-17T15:53:23.280Z,13.80
2018-10-17T15:55:52.219Z,13.60
2018-10-17T15:58:21.190Z,13.40
2018-10-17T16:00:50.285Z,13.30
2018-10-17T16:03:19.236Z,13.20
2018-10-17T16:05:48.207Z,13.00
2018-10-17T16:08:17.209Z,12.90
2018-10-17T16:10:46.059Z,12.80
2018-10-17T16:13:15.035Z,12.70
2018-10-17T16:15:44.140Z,12.60
2018-10-17T16:18:13.221Z,12.40
2018-10-17T16:20:42.657Z,12.30
2018-10-17T16:23:11.628Z,12.20
2018-10-17T16:25:40.567Z,12.20
2018-10-17T16:28:09.564Z,12.10
2018-10-17T16:30:38.510Z,12.00
2018-10-17T16:33:07.543Z,11.90
2018-10-17T16:35:36.473Z,11.80
2018-10-17T16:38:05.606Z,11.60
2018-10-17T16:40:35.036Z,11.50
2018-10-17T16:43:03.955Z,11.50
2018-10-17T16:45:32.976Z,11.40
2018-10-17T16:48:01.916Z,11.30
2018-10-17T16:50:30.967Z,11.20
2018-10-17T16:52:59.821Z,11.10
2018-10-17T16:55:28.754Z,11.00
2018-10-17T16:57:58.971Z,10.90
2018-10-17T17:00:27.979Z,10.80
2018-10-17T17:02:56.960Z,10.70
2018-10-17T17:05:25.848Z,10.60
2018-10-17T17:07:54.808Z,10.60
2018-10-17T17:10:23.836Z,10.50
2018-10-17T17:12:52.829Z,10.50
2018-10-17T17:15:21.872Z,10.50
2018-10-17T17:17:50.824Z,10.50
2018-10-17T17:20:19.717Z,10.50
2018-10-17T17:22:48.734Z,10.40
2018-10-17T17:25:17.588Z,10.40
2018-10-17T17:27:46.500Z,10.40
2018-10-17T17:30:18.095Z,10.40
2018-10-17T17:32:47.897Z,10.30
2018-10-17T17:35:16.867Z,10.30
2018-10-17T17:37:45.807Z,10.30
2018-10-17T17:40:15.393Z,10.20
2018-10-17T17:42:44.316Z,10.20
2018-10-17T17:45:13.404Z,10.20
2018-10-17T17:47:42.395Z,10.10
2018-10-17T17:50:11.787Z,10.10
2018-10-17T17:52:40.667Z,10.10
2018-10-17T17:55:10.108Z,10.00
2018-10-17T17:57:40.095Z,10.10
2018-10-17T18:00:09.264Z,10.10
2018-10-17T18:02:39.133Z,10.10
2018-10-17T18:05:08.448Z,10.00
2018-10-17T18:07:38.126Z,10.00
2018-10-17T18:10:07.741Z,10.00
2018-10-17T18:12:36.855Z,10.00
2018-10-17T18:15:06.663Z,10.00
2018-10-17T18:17:35.645Z,9.90
2018-10-17T18:20:04.862Z,9.80
2018-10-17T18:22:33.815Z,9.90
2018-10-17T18:25:02.865Z,9.90
2018-10-17T18:27:31.826Z,9.80
2018-10-17T18:30:00.805Z,9.80
2018-10-17T18:32:29.720Z,9.90
2018-10-17T18:34:58.728Z,9.90
2018-10-17T18:37:28.656Z,9.90
2018-10-17T18:39:57.564Z,9.90
2018-10-17T18:42:26.583Z,9.90
2018-10-17T18:44:56.247Z,9.90
2018-10-17T18:47:25.272Z,10.00
2018-10-17T18:49:54.735Z,10.00
2018-10-17T18:52:24.975Z,10.00
2018-10-17T18:54:53.940Z,10.00
2018-10-17T18:57:22.848Z,10.00
2018-10-17T18:59:52.084Z,10.00
2018-10-17T19:02:21.638Z,10.00
2018-10-17T19:04:50.597Z,9.90
2018-10-17T19:07:19.554Z,9.90
2018-10-17T19:09:48.493Z,9.90
2018-10-17T19:12:17.459Z,9.80
2018-10-17T19:14:46.405Z,9.80
2018-10-17T19:17:15.431Z,9.70
2018-10-17T19:19:44.398Z,9.70
2018-10-17T19:22:14.292Z,9.60
2018-10-17T19:24:43.300Z,9.50
2018-10-17T19:27:12.321Z,9.40
2018-10-17T19:29:41.241Z,9.40
2018-10-17T19:32:10.222Z,9.40
2018-10-17T19:34:39.169Z,9.30
2018-10-17T19:37:08.122Z,9.20
2018-10-17T19:39:37.053Z,9.10
2018-10-17T19:42:06.166Z,9.00
2018-10-17T19:44:35.142Z,9.00
2018-10-17T19:47:04.307Z,8.90
2018-10-17T19:49:33.215Z,8.80
2018-10-17T19:52:02.187Z,8.70
2018-10-17T19:54:31.120Z,8.70
2018-10-17T19:57:00.077Z,8.70
2018-10-17T19:59:29.009Z,8.60
2018-10-17T20:01:57.978Z,8.50
2018-10-17T20:04:26.997Z,8.50
2018-10-17T20:06:55.974Z,8.50
2018-10-17T20:09:24.932Z,8.40
2018-10-17T20:11:54.106Z,8.30
2018-10-17T20:14:23.640Z,8.30
2018-10-17T20:16:52.619Z,8.30
2018-10-17T20:19:21.552Z,8.30
2018-10-17T20:21:50.418Z,8.20
2018-10-17T20:24:19.480Z,8.20
2018-10-17T20:26:54.663Z,8.10
2018-10-17T20:29:29.780Z,8.10
2018-10-17T20:32:04.574Z,8.10
2018-10-17T20:34:40.055Z,8.00
2018-10-17T20:37:09.018Z,8.00
2018-10-17T20:39:37.928Z,8.00
2018-10-17T20:42:07.305Z,7.90
2018-10-17T20:44:36.383Z,7.90
2018-10-17T20:47:05.797Z,7.90
2018-10-17T20:49:34.805Z,7.80
2018-10-17T20:52:03.753Z,7.80
2018-10-17T20:54:32.703Z,7.70
2018-10-17T20:57:01.548Z,7.70
2018-10-17T20:59:30.568Z,7.70
2018-10-17T21:01:59.803Z,7.60
2018-10-17T21:04:28.645Z,7.60
2018-10-17T21:06:57.525Z,7.50
2018-10-17T21:09:27.168Z,7.50
2018-10-17T21:11:56.057Z,7.50
2018-10-17T21:14:24.923Z,7.40
2018-10-17T21:16:53.929Z,7.40
2018-10-17T21:19:22.784Z,7.30
2018-10-17T21:21:51.699Z,7.30
2018-10-17T21:24:20.717Z,7.20
2018-10-17T21:26:49.749Z,7.20
2018-10-17T21:29:19.060Z,7.10
2018-10-17T21:31:48.067Z,7.10
2018-10-17T21:34:16.962Z,7.10
2018-10-17T21:36:45.861Z,7.10
2018-10-17T21:39:16.112Z,7.00
2018-10-17T21:41:45.025Z,7.00
2018-10-17T21:44:14.059Z,7.00
2018-10-17T21:46:43.002Z,6.90
2018-10-17T21:49:11.904Z,6.90
2018-10-17T21:51:41.231Z,6.90
2018-10-17T21:54:10.149Z,6.80
2018-10-17T21:56:39.028Z,6.80
2018-10-17T21:59:08.293Z,6.80
2018-10-17T22:01:37.268Z,6.80
2018-10-17T22:04:06.311Z,6.80
2018-10-17T22:06:35.203Z,6.70
2018-10-17T22:09:05.413Z,6.70
2018-10-17T22:11:34.337Z,6.70
2018-10-17T22:14:03.413Z,6.70
2018-10-17T22:16:37.456Z,6.70
2018-10-17T22:19:06.510Z,6.80
2018-10-17T22:21:35.338Z,6.80
2018-10-17T22:24:04.323Z,6.80
2018-10-17T22:26:33.247Z,6.80
2018-10-17T22:29:02.113Z,6.80
2018-10-17T22:31:31.064Z,6.80
2018-10-17T22:33:59.899Z,6.80
2018-10-17T22:36:28.792Z,6.80
2018-10-17T22:38:57.711Z,6.80
2018-10-17T22:41:26.575Z,6.80
2018-10-17T22:43:55.493Z,6.80
2018-10-17T22:46:24.440Z,6.80
2018-10-17T22:48:53.335Z,6.80
2018-10-17T22:51:22.240Z,6.80
2018-10-17T22:53:51.128Z,6.70
2018-10-17T22:56:20.132Z,6.70
2018-10-17T22:58:49.033Z,6.70
2018-10-17T23:01:17.960Z,6.70
2018-10-17T23:03:46.921Z,6.70
2018-10-17T23:06:15.841Z,6.70
2018-10-17T23:08:44.786Z,6.70
2018-10-17T23:11:13.692Z,6.70
2018-10-17T23:13:42.554Z,6.70
2018-10-17T23:16:12.431Z,6.70
2018-10-17T23:18:41.378Z,6.70
2018-10-17T23:21:10.265Z,6.70
2018-10-17T23:23:39.207Z,6.70
2018-10-17T23:26:08.672Z,6.70
2018-10-17T23:28:37.612Z,6.70
2018-10-17T23:31:06.598Z,6.70
2018-10-17T23:33:35.495Z,6.70
2018-10-17T23:36:04.384Z,6.80
2018-10-17T23:38:33.313Z,6.70
2018-10-17T23:41:02.216Z,6.70
2018-10-17T23:43:31.142Z,6.70
2018-10-17T23:46:00.069Z,6.80
2018-10-17T23:48:28.943Z,6.80
2018-10-17T23:50:57.814Z,6.80
2018-10-17T23:53:26.774Z,6.80
2018-10-17T23:55:55.714Z,6.80
2018-10-17T23:58:24.594Z,6.80
